Lockhart, Florida
Current Conditions -  °F | °C
As of 12:53 PM on Friday 28 Nov 2014 (Local Time) from KORL Reporting Station
Clear Clear  
Wind Chill: 60°   Ceiling: Unl
Heat Index: 60°   Visibility: 10mi
Dew Point: 40°   Wind: 7mph
Humidity: 47%   Direction: 10°N
Pressure: 30.28"   Gusts: NA
Location:  28.62°N, 81.44°W
Report Text: KORL 281753Z 01006KT 10SM CLR 16/04 A3028 RMK AO2 SLP259 T01560044 10156 20061 58021
Loading
Personal Weather Stations






























Interactive Weather Map New forecast layout! Learn more

10-Day Weather Forecast

Advertisements
Track Severe Weather on mobile